createdAt,value
2022-09-30T00:04:38.796Z,36.35
2022-09-30T00:10:00.586Z,40.03
2022-09-30T00:15:22.361Z,38.60
2022-09-30T00:20:44.178Z,36.25
2022-09-30T00:26:09.231Z,34.22
2022-09-30T00:31:33.700Z,34.15
2022-09-30T00:36:55.740Z,36.13
2022-09-30T00:42:17.602Z,33.15
2022-09-30T00:47:54.785Z,35.88
2022-09-30T00:53:23.360Z,32.08
2022-09-30T00:59:00.268Z,32.25
2022-09-30T01:04:24.914Z,32.58
2022-09-30T01:09:46.848Z,33.47
2022-09-30T01:15:09.041Z,35.42
2022-09-30T01:21:03.906Z,34.75
2022-09-30T01:26:39.473Z,33.67
2022-09-30T01:32:31.702Z,34.40
2022-09-30T01:37:56.133Z,31.98
2022-09-30T01:43:42.209Z,31.67
2022-09-30T01:49:25.504Z,30.70
2022-09-30T01:55:01.578Z,32.20
2022-09-30T02:00:23.618Z,30.10
2022-09-30T02:06:10.070Z,26.17
2022-09-30T02:17:05.589Z,28.65
2022-09-30T02:22:39.973Z,30.17
2022-09-30T02:28:07.638Z,29.70
2022-09-30T02:33:35.297Z,29.15
2022-09-30T02:39:06.567Z,29.88
2022-09-30T02:44:29.476Z,29.02
2022-09-30T02:50:18.331Z,30.00
2022-09-30T02:56:00.348Z,25.23
2022-09-30T03:01:22.491Z,31.42
2022-09-30T03:06:44.353Z,30.40
2022-09-30T03:12:16.887Z,29.02
2022-09-30T03:17:50.926Z,30.80
2022-09-30T03:23:22.879Z,37.03
2022-09-30T03:29:20.420Z,39.28
2022-09-30T03:34:50.915Z,41.80
2022-09-30T03:40:22.575Z,41.92
2022-09-30T03:45:57.161Z,47.67
2022-09-30T03:51:20.617Z,42.25
2022-09-30T03:56:42.705Z,46.53
2022-09-30T04:02:04.747Z,43.58
2022-09-30T04:07:26.574Z,42.10
2022-09-30T04:12:48.341Z,40.90
2022-09-30T04:18:10.347Z,36.72
2022-09-30T04:23:37.778Z,37.75
2022-09-30T04:28:59.524Z,34.88
2022-09-30T04:34:21.520Z,32.90
2022-09-30T04:39:43.271Z,31.58
2022-09-30T04:45:05.703Z,32.00
2022-09-30T04:50:27.495Z,30.95
2022-09-30T04:55:49.277Z,33.25
2022-09-30T05:01:13.812Z,32.78
2022-09-30T05:06:35.731Z,30.13
2022-09-30T05:11:57.529Z,29.38
2022-09-30T05:17:19.285Z,28.48
2022-09-30T05:22:41.127Z,27.85
2022-09-30T05:28:02.917Z,27.27
2022-09-30T05:33:25.197Z,27.38
2022-09-30T05:38:50.757Z,25.55
2022-09-30T05:44:12.746Z,24.20
2022-09-30T05:49:34.567Z,23.67
2022-09-30T05:54:56.414Z,26.25
2022-09-30T06:00:19.394Z,27.48
2022-09-30T06:05:41.268Z,27.02
2022-09-30T06:11:08.305Z,31.85
2022-09-30T06:16:30.144Z,29.35
2022-09-30T06:21:51.971Z,28.08
2022-09-30T06:27:13.786Z,28.27
2022-09-30T06:32:35.588Z,24.77
2022-09-30T06:37:57.431Z,24.15
2022-09-30T06:43:19.921Z,24.90
2022-09-30T06:48:41.797Z,23.55
2022-09-30T06:54:03.696Z,24.70
2022-09-30T06:59:25.593Z,24.30
2022-09-30T07:04:47.360Z,20.10
2022-09-30T07:10:10.098Z,18.63
2022-09-30T07:15:31.869Z,19.48
2022-09-30T07:20:55.276Z,17.77
2022-09-30T07:26:22.144Z,17.23
2022-09-30T07:31:43.986Z,16.17
2022-09-30T07:37:05.789Z,15.55
2022-09-30T07:42:27.651Z,16.88
2022-09-30T07:47:53.459Z,16.02
2022-09-30T07:53:15.706Z,15.73
2022-09-30T07:58:37.810Z,15.35
2022-09-30T08:04:03.281Z,15.40
2022-09-30T08:09:27.914Z,14.43
2022-09-30T08:14:49.905Z,14.73
2022-09-30T08:20:13.819Z,14.48
2022-09-30T08:25:37.504Z,14.00
2022-09-30T08:31:13.702Z,14.82
2022-09-30T08:36:35.506Z,12.77
2022-09-30T08:42:35.549Z,15.38
2022-09-30T08:47:55.305Z,14.70
2022-09-30T08:53:29.949Z,15.70
2022-09-30T08:58:56.657Z,16.17
2022-09-30T09:04:18.807Z,14.85
2022-09-30T09:09:49.437Z,15.50
2022-09-30T09:15:18.572Z,15.35
2022-09-30T09:20:55.043Z,15.73
2022-09-30T09:26:17.000Z,13.73
2022-09-30T09:31:38.870Z,12.30
2022-09-30T09:37:22.633Z,12.23
2022-09-30T09:42:51.274Z,9.88
2022-09-30T09:48:13.979Z,9.98
2022-09-30T09:53:54.553Z,10.07
2022-09-30T09:59:20.137Z,8.15
2022-09-30T10:04:48.384Z,8.63
2022-09-30T10:10:23.761Z,8.95
2022-09-30T10:15:47.245Z,7.90
2022-09-30T10:21:21.735Z,8.48
2022-09-30T10:26:48.482Z,7.95
2022-09-30T10:32:13.426Z,6.50
2022-09-30T10:37:35.312Z,7.03
2022-09-30T10:42:58.159Z,6.63
2022-09-30T10:48:24.253Z,6.43
2022-09-30T10:53:46.344Z,6.07
2022-09-30T10:59:28.862Z,6.72
2022-09-30T11:05:15.566Z,6.45
2022-09-30T11:10:51.389Z,6.22
2022-09-30T11:16:33.125Z,5.40
2022-09-30T11:22:05.519Z,4.65
2022-09-30T11:27:53.242Z,4.80
2022-09-30T11:34:02.900Z,5.43
2022-09-30T11:39:48.625Z,5.72
2022-09-30T11:45:27.928Z,6.00
2022-09-30T11:51:08.089Z,6.47
2022-09-30T11:56:51.448Z,6.28
2022-09-30T12:02:36.008Z,5.90
2022-09-30T12:08:12.480Z,5.57
2022-09-30T12:13:39.520Z,5.07
2022-09-30T12:19:13.903Z,4.97
2022-09-30T12:24:38.750Z,4.60
2022-09-30T12:30:15.369Z,5.35
2022-09-30T12:41:25.890Z,5.32
2022-09-30T12:47:17.468Z,5.88
2022-09-30T12:52:39.476Z,5.13
2022-09-30T12:58:01.742Z,6.07
2022-09-30T13:03:24.559Z,5.50
2022-09-30T13:09:18.856Z,5.28
2022-09-30T13:14:41.889Z,5.10
2022-09-30T13:20:42.001Z,7.60
2022-09-30T13:26:24.599Z,4.40
2022-09-30T13:31:49.185Z,4.20
2022-09-30T13:37:31.189Z,4.43
2022-09-30T13:42:55.800Z,4.10
2022-09-30T13:48:36.485Z,4.43
2022-09-30T13:54:06.129Z,4.07
2022-09-30T13:59:55.841Z,4.47
2022-09-30T14:05:26.602Z,4.35
2022-09-30T14:11:08.600Z,4.32
2022-09-30T14:16:40.269Z,17.20
2022-09-30T14:22:08.627Z,4.47
2022-09-30T14:27:43.866Z,5.32
2022-09-30T14:33:22.546Z,5.40
2022-09-30T14:38:48.727Z,6.53
2022-09-30T14:44:14.723Z,5.78
2022-09-30T14:49:36.607Z,5.87
2022-09-30T14:54:58.384Z,5.68
2022-09-30T15:00:31.269Z,6.78
2022-09-30T15:05:53.430Z,7.70
2022-09-30T15:11:24.680Z,6.97
2022-09-30T15:16:49.757Z,7.40
2022-09-30T15:22:13.310Z,6.65
2022-09-30T15:27:36.449Z,7.25
2022-09-30T15:33:01.152Z,7.50
2022-09-30T15:38:26.296Z,6.82
2022-09-30T15:43:50.357Z,7.30
2022-09-30T15:49:34.147Z,6.78
2022-09-30T15:54:57.567Z,6.68
2022-09-30T16:00:38.170Z,7.30
2022-09-30T16:06:06.978Z,7.38
2022-09-30T16:11:39.038Z,7.45
2022-09-30T16:17:03.217Z,7.60
2022-09-30T16:22:37.028Z,8.63
2022-09-30T16:28:01.860Z,7.00
2022-09-30T16:33:23.801Z,7.95
2022-09-30T16:38:45.571Z,8.52
2022-09-30T16:44:07.525Z,8.25
2022-09-30T16:49:29.361Z,8.93
2022-09-30T16:54:51.082Z,9.60
2022-09-30T17:00:14.976Z,8.38
2022-09-30T17:05:39.922Z,9.48
2022-09-30T17:11:01.706Z,9.57
2022-09-30T17:16:24.375Z,9.43
2022-09-30T17:21:46.190Z,10.80
2022-09-30T17:27:09.102Z,9.90
2022-09-30T17:32:30.852Z,10.00
2022-09-30T17:37:52.642Z,9.57
2022-09-30T17:43:14.418Z,9.88
2022-09-30T17:48:36.208Z,7.80
2022-09-30T17:53:58.029Z,9.50
2022-09-30T17:59:19.794Z,8.25
2022-09-30T18:04:41.607Z,8.18
2022-09-30T18:10:03.554Z,9.10
2022-09-30T18:15:25.450Z,9.13
2022-09-30T18:20:48.699Z,11.32
2022-09-30T18:26:10.445Z,10.50
2022-09-30T18:31:32.428Z,10.52
2022-09-30T18:36:54.690Z,10.50
2022-09-30T18:42:16.592Z,11.20
2022-09-30T18:47:39.935Z,10.57
2022-09-30T18:53:05.657Z,11.88
2022-09-30T18:58:30.385Z,12.43
2022-09-30T19:03:52.217Z,13.05
2022-09-30T19:09:14.869Z,12.68
2022-09-30T19:14:36.629Z,12.23
2022-09-30T19:19:59.397Z,13.55
2022-09-30T19:25:21.212Z,13.57
2022-09-30T19:30:43.017Z,13.70
2022-09-30T19:36:14.409Z,14.82
2022-09-30T19:41:36.683Z,13.45
2022-09-30T19:46:58.471Z,14.13
2022-09-30T19:52:22.106Z,15.25
2022-09-30T19:57:44.151Z,14.32
2022-09-30T20:03:05.925Z,23.30
2022-09-30T20:08:31.606Z,14.13
2022-09-30T20:13:55.508Z,16.17
2022-09-30T20:19:18.339Z,15.15
2022-09-30T20:24:40.081Z,16.70
2022-09-30T20:30:01.849Z,18.33
2022-09-30T20:35:24.203Z,18.52
2022-09-30T20:40:45.974Z,16.65
2022-09-30T20:46:07.810Z,16.77
2022-09-30T20:51:31.193Z,19.40
2022-09-30T20:57:06.778Z,19.42
2022-09-30T21:02:29.567Z,17.83
2022-09-30T21:07:51.378Z,19.58
2022-09-30T21:13:13.135Z,20.10
2022-09-30T21:18:34.899Z,20.85
2022-09-30T21:23:56.660Z,20.40
2022-09-30T21:29:18.925Z,21.52
2022-09-30T21:34:40.965Z,21.17
2022-09-30T21:40:02.764Z,19.83
2022-09-30T21:45:24.749Z,23.08
2022-09-30T21:50:46.569Z,21.50
2022-09-30T21:56:10.215Z,22.85
2022-09-30T22:01:32.632Z,21.92
2022-09-30T22:06:54.562Z,24.15
2022-09-30T22:12:16.315Z,23.60
2022-09-30T22:17:38.120Z,22.15
2022-09-30T22:23:00.010Z,23.77
2022-09-30T22:28:21.799Z,24.40
2022-09-30T22:33:43.718Z,23.83
2022-09-30T22:39:05.512Z,25.55
2022-09-30T22:44:31.935Z,23.88
2022-09-30T22:49:53.698Z,22.52
2022-09-30T22:55:15.464Z,24.65
2022-09-30T23:00:37.292Z,23.88
2022-09-30T23:06:03.743Z,23.38
2022-09-30T23:11:25.502Z,24.15
2022-09-30T23:16:47.765Z,23.48
2022-09-30T23:22:09.638Z,25.42
2022-09-30T23:27:31.448Z,24.45
2022-09-30T23:32:53.299Z,25.88
2022-09-30T23:38:15.672Z,26.50
2022-09-30T23:43:37.656Z,24.70
2022-09-30T23:49:00.796Z,26.15
2022-09-30T23:54:22.551Z,26.92
2022-09-30T23:59:44.314Z,25.35
